sensor_id;sensor_type;location;lat;lon;timestamp;P1;durP1;ratioP1;P2;durP2;ratioP2
36257;SDS011;22294;52.044;4.582;2022-08-21T00:00:05;9.43;;;3.28;;
36257;SDS011;22294;52.044;4.582;2022-08-21T00:02:33;11.48;;;3.70;;
36257;SDS011;22294;52.044;4.582;2022-08-21T00:04:58;8.93;;;3.10;;
36257;SDS011;22294;52.044;4.582;2022-08-21T00:07:24;7.22;;;3.20;;
36257;SDS011;22294;52.044;4.582;2022-08-21T00:09:50;9.27;;;3.88;;
36257;SDS011;22294;52.044;4.582;2022-08-21T00:12:16;8.00;;;3.38;;
36257;SDS011;22294;52.044;4.582;2022-08-21T00:14:42;8.15;;;3.58;;
36257;SDS011;22294;52.044;4.582;2022-08-21T00:17:07;10.23;;;3.15;;
36257;SDS011;22294;52.044;4.582;2022-08-21T00:19:33;8.13;;;3.35;;
36257;SDS011;22294;52.044;4.582;2022-08-21T00:21:58;10.82;;;3.33;;
36257;SDS011;22294;52.044;4.582;2022-08-21T00:24:24;7.80;;;3.40;;
36257;SDS011;22294;52.044;4.582;2022-08-21T00:26:50;11.25;;;3.90;;
36257;SDS011;22294;52.044;4.582;2022-08-21T00:29:16;14.90;;;3.60;;
36257;SDS011;22294;52.044;4.582;2022-08-21T00:31:43;7.13;;;3.10;;
36257;SDS011;22294;52.044;4.582;2022-08-21T00:34:09;9.38;;;3.15;;
36257;SDS011;22294;52.044;4.582;2022-08-21T00:36:36;8.82;;;3.13;;
36257;SDS011;22294;52.044;4.582;2022-08-21T00:39:03;9.25;;;2.70;;
36257;SDS011;22294;52.044;4.582;2022-08-21T00:41:30;7.68;;;3.00;;
36257;SDS011;22294;52.044;4.582;2022-08-21T00:43:56;13.15;;;3.58;;
36257;SDS011;22294;52.044;4.582;2022-08-21T00:46:21;10.43;;;2.85;;
36257;SDS011;22294;52.044;4.582;2022-08-21T00:48:47;7.38;;;2.60;;
36257;SDS011;22294;52.044;4.582;2022-08-21T00:51:20;9.90;;;2.90;;
36257;SDS011;22294;52.044;4.582;2022-08-21T00:53:54;8.25;;;3.05;;
36257;SDS011;22294;52.044;4.582;2022-08-21T00:56:22;8.80;;;2.38;;
36257;SDS011;22294;52.044;4.582;2022-08-21T00:58:49;9.23;;;2.92;;
36257;SDS011;22294;52.044;4.582;2022-08-21T01:01:15;11.88;;;2.45;;
36257;SDS011;22294;52.044;4.582;2022-08-21T01:03:41;6.82;;;2.38;;
36257;SDS011;22294;52.044;4.582;2022-08-21T01:06:07;9.25;;;2.70;;
36257;SDS011;22294;52.044;4.582;2022-08-21T01:08:34;8.95;;;2.90;;
36257;SDS011;22294;52.044;4.582;2022-08-21T01:11:00;8.52;;;2.53;;
36257;SDS011;22294;52.044;4.582;2022-08-21T01:13:27;10.27;;;2.70;;
36257;SDS011;22294;52.044;4.582;2022-08-21T01:15:55;7.35;;;3.00;;
36257;SDS011;22294;52.044;4.582;2022-08-21T01:18:24;9.98;;;2.70;;
36257;SDS011;22294;52.044;4.582;2022-08-21T01:20:58;8.30;;;2.42;;
36257;SDS011;22294;52.044;4.582;2022-08-21T01:23:23;10.93;;;3.03;;
36257;SDS011;22294;52.044;4.582;2022-08-21T01:25:48;6.22;;;2.47;;
36257;SDS011;22294;52.044;4.582;2022-08-21T01:28:14;14.05;;;2.65;;
36257;SDS011;22294;52.044;4.582;2022-08-21T01:30:40;9.13;;;3.25;;
36257;SDS011;22294;52.044;4.582;2022-08-21T01:33:08;6.65;;;2.33;;
36257;SDS011;22294;52.044;4.582;2022-08-21T01:35:33;6.20;;;2.35;;
36257;SDS011;22294;52.044;4.582;2022-08-21T01:37:59;9.32;;;2.78;;
36257;SDS011;22294;52.044;4.582;2022-08-21T01:40:24;8.50;;;2.70;;
36257;SDS011;22294;52.044;4.582;2022-08-21T01:42:50;8.60;;;2.15;;
36257;SDS011;22294;52.044;4.582;2022-08-21T01:45:16;8.25;;;3.35;;
36257;SDS011;22294;52.044;4.582;2022-08-21T01:47:42;6.45;;;2.25;;
36257;SDS011;22294;52.044;4.582;2022-08-21T01:50:09;11.73;;;2.72;;
36257;SDS011;22294;52.044;4.582;2022-08-21T01:52:37;8.90;;;2.63;;
36257;SDS011;22294;52.044;4.582;2022-08-21T01:55:04;10.35;;;2.60;;
36257;SDS011;22294;52.044;4.582;2022-08-21T01:57:31;12.50;;;2.95;;
36257;SDS011;22294;52.044;4.582;2022-08-21T01:59:57;8.18;;;2.97;;
36257;SDS011;22294;52.044;4.582;2022-08-21T02:02:23;11.63;;;3.20;;
36257;SDS011;22294;52.044;4.582;2022-08-21T02:04:49;9.02;;;3.03;;
36257;SDS011;22294;52.044;4.582;2022-08-21T02:07:14;11.55;;;3.00;;
36257;SDS011;22294;52.044;4.582;2022-08-21T02:09:40;7.30;;;3.10;;
36257;SDS011;22294;52.044;4.582;2022-08-21T02:12:08;10.45;;;3.15;;
36257;SDS011;22294;52.044;4.582;2022-08-21T02:14:34;7.68;;;3.10;;
36257;SDS011;22294;52.044;4.582;2022-08-21T02:16:59;7.70;;;3.25;;
36257;SDS011;22294;52.044;4.582;2022-08-21T02:19:25;7.30;;;2.70;;
36257;SDS011;22294;52.044;4.582;2022-08-21T02:21:50;9.13;;;3.13;;
36257;SDS011;22294;52.044;4.582;2022-08-21T02:24:15;10.17;;;3.53;;
36257;SDS011;22294;52.044;4.582;2022-08-21T02:26:41;8.93;;;2.78;;
36257;SDS011;22294;52.044;4.582;2022-08-21T02:29:06;7.82;;;3.00;;
36257;SDS011;22294;52.044;4.582;2022-08-21T02:31:31;12.27;;;3.10;;
36257;SDS011;22294;52.044;4.582;2022-08-21T02:33:57;11.18;;;3.72;;
36257;SDS011;22294;52.044;4.582;2022-08-21T02:36:22;11.50;;;2.92;;
36257;SDS011;22294;52.044;4.582;2022-08-21T02:38:47;7.53;;;2.60;;
36257;SDS011;22294;52.044;4.582;2022-08-21T02:41:15;11.95;;;3.20;;
36257;SDS011;22294;52.044;4.582;2022-08-21T02:43:42;10.10;;;2.80;;
36257;SDS011;22294;52.044;4.582;2022-08-21T02:46:09;7.32;;;2.70;;
36257;SDS011;22294;52.044;4.582;2022-08-21T02:48:37;8.07;;;2.75;;
36257;SDS011;22294;52.044;4.582;2022-08-21T02:51:04;8.07;;;2.97;;
36257;SDS011;22294;52.044;4.582;2022-08-21T02:53:35;8.20;;;3.17;;
36257;SDS011;22294;52.044;4.582;2022-08-21T02:56:02;10.25;;;2.80;;
36257;SDS011;22294;52.044;4.582;2022-08-21T02:58:34;9.45;;;3.00;;
36257;SDS011;22294;52.044;4.582;2022-08-21T03:01:02;7.95;;;3.08;;
36257;SDS011;22294;52.044;4.582;2022-08-21T03:03:28;10.15;;;3.50;;
36257;SDS011;22294;52.044;4.582;2022-08-21T03:05:54;9.60;;;3.22;;
36257;SDS011;22294;52.044;4.582;2022-08-21T03:08:20;7.57;;;2.60;;
36257;SDS011;22294;52.044;4.582;2022-08-21T03:10:49;7.95;;;2.60;;
36257;SDS011;22294;52.044;4.582;2022-08-21T03:13:16;8.43;;;2.83;;
36257;SDS011;22294;52.044;4.582;2022-08-21T03:15:42;8.38;;;3.20;;
36257;SDS011;22294;52.044;4.582;2022-08-21T03:18:09;6.72;;;2.75;;
36257;SDS011;22294;52.044;4.582;2022-08-21T03:20:36;8.07;;;3.05;;
36257;SDS011;22294;52.044;4.582;2022-08-21T03:23:03;6.65;;;2.83;;
36257;SDS011;22294;52.044;4.582;2022-08-21T03:25:29;12.30;;;2.88;;
36257;SDS011;22294;52.044;4.582;2022-08-21T03:27:58;10.82;;;3.38;;
36257;SDS011;22294;52.044;4.582;2022-08-21T03:30:24;9.52;;;2.63;;
36257;SDS011;22294;52.044;4.582;2022-08-21T03:32:50;9.60;;;2.45;;
36257;SDS011;22294;52.044;4.582;2022-08-21T03:35:18;7.93;;;2.70;;
36257;SDS011;22294;52.044;4.582;2022-08-21T03:37:44;8.73;;;2.60;;
36257;SDS011;22294;52.044;4.582;2022-08-21T03:40:10;8.82;;;2.78;;
36257;SDS011;22294;52.044;4.582;2022-08-21T03:42:37;8.60;;;2.53;;
36257;SDS011;22294;52.044;4.582;2022-08-21T03:45:03;9.45;;;2.75;;
36257;SDS011;22294;52.044;4.582;2022-08-21T03:47:30;7.53;;;2.20;;
36257;SDS011;22294;52.044;4.582;2022-08-21T03:49:55;11.73;;;2.80;;
36257;SDS011;22294;52.044;4.582;2022-08-21T03:52:20;6.68;;;2.35;;
36257;SDS011;22294;52.044;4.582;2022-08-21T03:54:46;8.30;;;2.50;;
36257;SDS011;22294;52.044;4.582;2022-08-21T03:57:11;8.55;;;2.42;;
36257;SDS011;22294;52.044;4.582;2022-08-21T03:59:37;10.25;;;2.80;;
36257;SDS011;22294;52.044;4.582;2022-08-21T04:02:05;9.18;;;2.45;;
36257;SDS011;22294;52.044;4.582;2022-08-21T04:04:31;10.52;;;3.22;;
36257;SDS011;22294;52.044;4.582;2022-08-21T04:06:57;6.78;;;2.13;;
36257;SDS011;22294;52.044;4.582;2022-08-21T04:09:23;7.97;;;2.47;;
36257;SDS011;22294;52.044;4.582;2022-08-21T04:11:49;7.25;;;2.33;;
36257;SDS011;22294;52.044;4.582;2022-08-21T04:14:15;9.05;;;2.13;;
36257;SDS011;22294;52.044;4.582;2022-08-21T04:16:41;9.60;;;2.40;;
36257;SDS011;22294;52.044;4.582;2022-08-21T04:19:07;6.80;;;2.47;;
36257;SDS011;22294;52.044;4.582;2022-08-21T04:21:33;11.60;;;2.58;;
36257;SDS011;22294;52.044;4.582;2022-08-21T04:24:01;10.68;;;2.40;;
36257;SDS011;22294;52.044;4.582;2022-08-21T04:26:27;7.30;;;2.70;;
36257;SDS011;22294;52.044;4.582;2022-08-21T04:28:53;9.07;;;2.78;;
36257;SDS011;22294;52.044;4.582;2022-08-21T04:31:22;9.73;;;2.90;;
36257;SDS011;22294;52.044;4.582;2022-08-21T04:33:48;15.55;;;3.10;;
36257;SDS011;22294;52.044;4.582;2022-08-21T04:36:13;8.67;;;2.43;;
36257;SDS011;22294;52.044;4.582;2022-08-21T04:38:39;10.68;;;3.15;;
36257;SDS011;22294;52.044;4.582;2022-08-21T04:41:04;12.47;;;2.93;;
36257;SDS011;22294;52.044;4.582;2022-08-21T04:43:30;11.73;;;3.17;;
36257;SDS011;22294;52.044;4.582;2022-08-21T04:45:55;10.35;;;3.05;;
36257;SDS011;22294;52.044;4.582;2022-08-21T04:48:21;8.65;;;2.50;;
36257;SDS011;22294;52.044;4.582;2022-08-21T04:50:56;9.68;;;2.58;;
36257;SDS011;22294;52.044;4.582;2022-08-21T04:53:30;11.80;;;3.20;;
36257;SDS011;22294;52.044;4.582;2022-08-21T04:56:01;11.27;;;3.35;;
36257;SDS011;22294;52.044;4.582;2022-08-21T04:58:32;9.38;;;2.85;;
36257;SDS011;22294;52.044;4.582;2022-08-21T05:01:00;11.90;;;3.20;;
36257;SDS011;22294;52.044;4.582;2022-08-21T05:03:26;9.23;;;2.67;;
36257;SDS011;22294;52.044;4.582;2022-08-21T05:05:53;14.00;;;3.13;;
36257;SDS011;22294;52.044;4.582;2022-08-21T05:08:19;11.95;;;2.83;;
36257;SDS011;22294;52.044;4.582;2022-08-21T05:10:48;12.57;;;3.13;;
36257;SDS011;22294;52.044;4.582;2022-08-21T05:13:14;9.95;;;3.13;;
36257;SDS011;22294;52.044;4.582;2022-08-21T05:15:39;14.73;;;3.20;;
36257;SDS011;22294;52.044;4.582;2022-08-21T05:18:06;11.05;;;3.10;;
36257;SDS011;22294;52.044;4.582;2022-08-21T05:20:32;15.30;;;3.30;;
36257;SDS011;22294;52.044;4.582;2022-08-21T05:22:59;10.45;;;3.55;;
36257;SDS011;22294;52.044;4.582;2022-08-21T05:25:25;11.23;;;3.15;;
36257;SDS011;22294;52.044;4.582;2022-08-21T05:27:50;13.45;;;3.30;;
36257;SDS011;22294;52.044;4.582;2022-08-21T05:30:15;9.55;;;3.22;;
36257;SDS011;22294;52.044;4.582;2022-08-21T05:32:41;13.73;;;3.85;;
36257;SDS011;22294;52.044;4.582;2022-08-21T05:35:06;12.60;;;3.78;;
36257;SDS011;22294;52.044;4.582;2022-08-21T05:37:33;10.93;;;3.40;;
36257;SDS011;22294;52.044;4.582;2022-08-21T05:39:59;12.38;;;3.92;;
36257;SDS011;22294;52.044;4.582;2022-08-21T05:42:25;16.00;;;4.47;;
36257;SDS011;22294;52.044;4.582;2022-08-21T05:44:50;12.95;;;3.85;;
36257;SDS011;22294;52.044;4.582;2022-08-21T05:47:16;13.07;;;4.22;;
36257;SDS011;22294;52.044;4.582;2022-08-21T05:49:41;14.30;;;4.07;;
36257;SDS011;22294;52.044;4.582;2022-08-21T05:52:06;11.80;;;4.37;;
36257;SDS011;22294;52.044;4.582;2022-08-21T05:54:32;14.25;;;3.70;;
36257;SDS011;22294;52.044;4.582;2022-08-21T05:56:57;13.75;;;4.03;;
36257;SDS011;22294;52.044;4.582;2022-08-21T05:59:23;15.45;;;4.10;;
36257;SDS011;22294;52.044;4.582;2022-08-21T06:01:48;15.30;;;4.90;;
36257;SDS011;22294;52.044;4.582;2022-08-21T06:04:14;15.88;;;4.30;;
36257;SDS011;22294;52.044;4.582;2022-08-21T06:06:39;12.23;;;4.93;;
36257;SDS011;22294;52.044;4.582;2022-08-21T06:09:05;15.23;;;4.85;;
36257;SDS011;22294;52.044;4.582;2022-08-21T06:11:31;13.90;;;4.90;;
36257;SDS011;22294;52.044;4.582;2022-08-21T06:13:57;16.50;;;5.05;;
36257;SDS011;22294;52.044;4.582;2022-08-21T06:16:24;12.43;;;4.95;;
36257;SDS011;22294;52.044;4.582;2022-08-21T06:18:50;11.50;;;5.07;;
36257;SDS011;22294;52.044;4.582;2022-08-21T06:21:16;17.30;;;5.35;;
36257;SDS011;22294;52.044;4.582;2022-08-21T06:23:42;15.98;;;5.20;;
36257;SDS011;22294;52.044;4.582;2022-08-21T06:26:08;10.45;;;4.57;;
36257;SDS011;22294;52.044;4.582;2022-08-21T06:28:35;17.48;;;4.50;;
36257;SDS011;22294;52.044;4.582;2022-08-21T06:31:09;12.00;;;5.10;;
36257;SDS011;22294;52.044;4.582;2022-08-21T06:33:44;14.80;;;5.03;;
36257;SDS011;22294;52.044;4.582;2022-08-21T06:36:09;15.38;;;4.40;;
36257;SDS011;22294;52.044;4.582;2022-08-21T06:38:35;18.08;;;5.22;;
36257;SDS011;22294;52.044;4.582;2022-08-21T06:41:01;24.92;;;5.03;;
36257;SDS011;22294;52.044;4.582;2022-08-21T06:43:27;15.55;;;4.43;;
36257;SDS011;22294;52.044;4.582;2022-08-21T06:45:52;16.80;;;5.10;;
36257;SDS011;22294;52.044;4.582;2022-08-21T06:48:18;15.23;;;4.65;;
36257;SDS011;22294;52.044;4.582;2022-08-21T06:50:43;13.80;;;4.57;;
36257;SDS011;22294;52.044;4.582;2022-08-21T06:53:10;19.83;;;4.57;;
36257;SDS011;22294;52.044;4.582;2022-08-21T06:55:38;16.25;;;4.93;;
36257;SDS011;22294;52.044;4.582;2022-08-21T06:58:04;15.20;;;4.65;;
36257;SDS011;22294;52.044;4.582;2022-08-21T07:00:30;13.73;;;4.70;;
36257;SDS011;22294;52.044;4.582;2022-08-21T07:02:56;13.50;;;4.18;;
36257;SDS011;22294;52.044;4.582;2022-08-21T07:05:22;19.02;;;5.53;;
36257;SDS011;22294;52.044;4.582;2022-08-21T07:07:50;13.15;;;5.20;;
36257;SDS011;22294;52.044;4.582;2022-08-21T07:10:15;17.10;;;4.75;;
36257;SDS011;22294;52.044;4.582;2022-08-21T07:12:41;13.05;;;4.38;;
36257;SDS011;22294;52.044;4.582;2022-08-21T07:15:06;12.65;;;4.45;;
36257;SDS011;22294;52.044;4.582;2022-08-21T07:17:32;14.88;;;4.47;;
36257;SDS011;22294;52.044;4.582;2022-08-21T07:19:57;13.57;;;3.78;;
36257;SDS011;22294;52.044;4.582;2022-08-21T07:22:23;13.70;;;4.45;;
36257;SDS011;22294;52.044;4.582;2022-08-21T07:24:48;13.85;;;3.92;;
36257;SDS011;22294;52.044;4.582;2022-08-21T07:27:14;11.90;;;4.00;;
36257;SDS011;22294;52.044;4.582;2022-08-21T07:29:40;13.35;;;3.95;;
36257;SDS011;22294;52.044;4.582;2022-08-21T07:32:05;11.48;;;4.00;;
36257;SDS011;22294;52.044;4.582;2022-08-21T07:34:31;12.05;;;3.70;;
36257;SDS011;22294;52.044;4.582;2022-08-21T07:36:56;13.57;;;3.70;;
36257;SDS011;22294;52.044;4.582;2022-08-21T07:39:23;13.63;;;3.65;;
36257;SDS011;22294;52.044;4.582;2022-08-21T07:41:48;9.85;;;3.75;;
36257;SDS011;22294;52.044;4.582;2022-08-21T07:44:14;13.73;;;3.97;;
36257;SDS011;22294;52.044;4.582;2022-08-21T07:46:39;13.32;;;4.13;;
36257;SDS011;22294;52.044;4.582;2022-08-21T07:49:04;14.07;;;4.38;;
36257;SDS011;22294;52.044;4.582;2022-08-21T07:51:29;13.38;;;3.80;;
36257;SDS011;22294;52.044;4.582;2022-08-21T07:53:56;13.45;;;3.83;;
36257;SDS011;22294;52.044;4.582;2022-08-21T07:56:23;11.60;;;4.28;;
36257;SDS011;22294;52.044;4.582;2022-08-21T07:58:49;11.82;;;3.38;;
36257;SDS011;22294;52.044;4.582;2022-08-21T08:01:14;15.73;;;3.78;;
36257;SDS011;22294;52.044;4.582;2022-08-21T08:03:40;13.65;;;3.42;;
36257;SDS011;22294;52.044;4.582;2022-08-21T08:06:06;15.00;;;4.38;;
36257;SDS011;22294;52.044;4.582;2022-08-21T08:08:33;13.55;;;3.75;;
36257;SDS011;22294;52.044;4.582;2022-08-21T08:10:59;19.88;;;3.75;;
36257;SDS011;22294;52.044;4.582;2022-08-21T08:13:26;8.32;;;3.13;;
36257;SDS011;22294;52.044;4.582;2022-08-21T08:15:51;10.88;;;2.80;;
36257;SDS011;22294;52.044;4.582;2022-08-21T08:18:17;12.43;;;3.58;;
36257;SDS011;22294;52.044;4.582;2022-08-21T08:20:42;11.38;;;3.35;;
36257;SDS011;22294;52.044;4.582;2022-08-21T08:23:14;12.15;;;3.78;;
36257;SDS011;22294;52.044;4.582;2022-08-21T08:25:40;9.85;;;2.80;;
36257;SDS011;22294;52.044;4.582;2022-08-21T08:28:05;9.90;;;2.90;;
36257;SDS011;22294;52.044;4.582;2022-08-21T08:30:31;13.02;;;3.40;;
36257;SDS011;22294;52.044;4.582;2022-08-21T08:32:57;13.20;;;3.45;;
36257;SDS011;22294;52.044;4.582;2022-08-21T08:35:22;10.57;;;3.60;;
36257;SDS011;22294;52.044;4.582;2022-08-21T08:37:48;9.55;;;3.00;;
36257;SDS011;22294;52.044;4.582;2022-08-21T08:40:14;8.40;;;2.55;;
36257;SDS011;22294;52.044;4.582;2022-08-21T08:42:45;10.60;;;2.85;;
36257;SDS011;22294;52.044;4.582;2022-08-21T08:45:13;10.63;;;3.13;;
36257;SDS011;22294;52.044;4.582;2022-08-21T08:47:48;9.30;;;2.80;;
36257;SDS011;22294;52.044;4.582;2022-08-21T08:50:28;10.00;;;3.05;;
36257;SDS011;22294;52.044;4.582;2022-08-21T08:53:11;12.52;;;2.92;;
36257;SDS011;22294;52.044;4.582;2022-08-21T08:55:42;10.13;;;2.90;;
36257;SDS011;22294;52.044;4.582;2022-08-21T08:58:12;14.43;;;3.55;;
36257;SDS011;22294;52.044;4.582;2022-08-21T09:00:45;10.63;;;3.00;;
36257;SDS011;22294;52.044;4.582;2022-08-21T09:03:13;9.05;;;3.13;;
36257;SDS011;22294;52.044;4.582;2022-08-21T09:05:48;15.77;;;3.38;;
36257;SDS011;22294;52.044;4.582;2022-08-21T09:11:30;8.65;;;2.78;;
36257;SDS011;22294;52.044;4.582;2022-08-21T09:14:11;9.02;;;2.67;;
36257;SDS011;22294;52.044;4.582;2022-08-21T09:22:59;13.35;;;2.60;;
36257;SDS011;22294;52.044;4.582;2022-08-21T09:25:46;9.75;;;1.83;;
36257;SDS011;22294;52.044;4.582;2022-08-21T09:28:26;8.52;;;2.25;;
36257;SDS011;22294;52.044;4.582;2022-08-21T09:33:27;10.52;;;1.80;;
36257;SDS011;22294;52.044;4.582;2022-08-21T09:35:54;8.85;;;2.05;;
36257;SDS011;22294;52.044;4.582;2022-08-21T09:38:29;5.65;;;1.70;;
36257;SDS011;22294;52.044;4.582;2022-08-21T09:41:03;9.07;;;2.00;;
36257;SDS011;22294;52.044;4.582;2022-08-21T09:43:31;6.28;;;1.40;;
36257;SDS011;22294;52.044;4.582;2022-08-21T09:46:02;7.40;;;2.03;;
36257;SDS011;22294;52.044;4.582;2022-08-21T09:48:28;8.43;;;1.67;;
36257;SDS011;22294;52.044;4.582;2022-08-21T09:51:05;12.80;;;2.28;;
36257;SDS011;22294;52.044;4.582;2022-08-21T09:53:33;8.10;;;1.90;;
36257;SDS011;22294;52.044;4.582;2022-08-21T09:56:02;9.73;;;1.80;;
36257;SDS011;22294;52.044;4.582;2022-08-21T09:58:51;13.50;;;2.03;;
36257;SDS011;22294;52.044;4.582;2022-08-21T10:01:18;6.10;;;1.60;;
36257;SDS011;22294;52.044;4.582;2022-08-21T10:03:46;9.68;;;1.70;;
36257;SDS011;22294;52.044;4.582;2022-08-21T10:06:25;5.80;;;1.83;;
36257;SDS011;22294;52.044;4.582;2022-08-21T10:09:06;7.95;;;1.88;;
36257;SDS011;22294;52.044;4.582;2022-08-21T10:11:35;10.20;;;1.73;;
36257;SDS011;22294;52.044;4.582;2022-08-21T10:22:22;7.97;;;1.80;;
36257;SDS011;22294;52.044;4.582;2022-08-21T10:25:08;8.45;;;1.80;;
36257;SDS011;22294;52.044;4.582;2022-08-21T10:28:02;5.13;;;1.70;;
36257;SDS011;22294;52.044;4.582;2022-08-21T10:30:37;10.20;;;2.05;;
36257;SDS011;22294;52.044;4.582;2022-08-21T10:38:45;6.93;;;1.92;;
36257;SDS011;22294;52.044;4.582;2022-08-21T10:41:32;10.35;;;2.42;;
36257;SDS011;22294;52.044;4.582;2022-08-21T10:44:17;6.68;;;1.58;;
36257;SDS011;22294;52.044;4.582;2022-08-21T10:47:05;7.95;;;1.52;;
36257;SDS011;22294;52.044;4.582;2022-08-21T10:49:45;7.70;;;2.13;;
36257;SDS011;22294;52.044;4.582;2022-08-21T10:55:06;9.52;;;1.70;;
36257;SDS011;22294;52.044;4.582;2022-08-21T10:57:40;5.75;;;1.38;;
36257;SDS011;22294;52.044;4.582;2022-08-21T11:00:11;7.70;;;2.13;;
36257;SDS011;22294;52.044;4.582;2022-08-21T11:02:45;7.70;;;1.85;;
36257;SDS011;22294;52.044;4.582;2022-08-21T11:05:18;8.82;;;2.20;;
36257;SDS011;22294;52.044;4.582;2022-08-21T11:08:08;6.63;;;1.83;;
36257;SDS011;22294;52.044;4.582;2022-08-21T11:10:39;7.70;;;1.90;;
36257;SDS011;22294;52.044;4.582;2022-08-21T11:18:53;6.57;;;1.73;;
36257;SDS011;22294;52.044;4.582;2022-08-21T11:21:27;7.10;;;1.88;;
36257;SDS011;22294;52.044;4.582;2022-08-21T11:23:57;11.10;;;1.75;;
36257;SDS011;22294;52.044;4.582;2022-08-21T11:37:37;7.88;;;1.73;;
36257;SDS011;22294;52.044;4.582;2022-08-21T11:40:21;8.05;;;1.60;;
36257;SDS011;22294;52.044;4.582;2022-08-21T11:43:06;8.45;;;1.85;;
36257;SDS011;22294;52.044;4.582;2022-08-21T11:46:07;6.68;;;1.52;;
36257;SDS011;22294;52.044;4.582;2022-08-21T11:51:29;6.88;;;1.42;;
36257;SDS011;22294;52.044;4.582;2022-08-21T11:57:07;6.25;;;1.40;;
36257;SDS011;22294;52.044;4.582;2022-08-21T11:59:47;6.05;;;1.65;;
36257;SDS011;22294;52.044;4.582;2022-08-21T12:02:28;8.27;;;1.40;;
36257;SDS011;22294;52.044;4.582;2022-08-21T12:05:04;7.70;;;1.45;;
36257;SDS011;22294;52.044;4.582;2022-08-21T12:07:37;7.43;;;1.65;;
36257;SDS011;22294;52.044;4.582;2022-08-21T12:10:12;6.47;;;1.80;;
36257;SDS011;22294;52.044;4.582;2022-08-21T12:12:41;7.15;;;1.35;;
36257;SDS011;22294;52.044;4.582;2022-08-21T12:17:53;7.47;;;1.67;;
36257;SDS011;22294;52.044;4.582;2022-08-21T12:22:52;5.67;;;1.50;;
36257;SDS011;22294;52.044;4.582;2022-08-21T12:25:20;6.43;;;1.25;;
36257;SDS011;22294;52.044;4.582;2022-08-21T12:27:49;7.95;;;1.73;;
36257;SDS011;22294;52.044;4.582;2022-08-21T12:30:21;6.45;;;1.77;;
36257;SDS011;22294;52.044;4.582;2022-08-21T12:32:57;5.75;;;1.10;;
36257;SDS011;22294;52.044;4.582;2022-08-21T12:35:27;3.30;;;1.13;;
36257;SDS011;22294;52.044;4.582;2022-08-21T12:38:02;7.13;;;1.15;;
36257;SDS011;22294;52.044;4.582;2022-08-21T12:40:46;5.68;;;1.30;;
36257;SDS011;22294;52.044;4.582;2022-08-21T12:43:20;5.90;;;1.20;;
36257;SDS011;22294;52.044;4.582;2022-08-21T12:45:50;6.32;;;1.15;;
36257;SDS011;22294;52.044;4.582;2022-08-21T12:48:39;3.63;;;1.05;;
36257;SDS011;22294;52.044;4.582;2022-08-21T12:51:11;3.15;;;1.10;;
36257;SDS011;22294;52.044;4.582;2022-08-21T12:53:50;9.18;;;2.38;;
36257;SDS011;22294;52.044;4.582;2022-08-21T12:56:19;4.85;;;1.38;;
36257;SDS011;22294;52.044;4.582;2022-08-21T12:58:47;5.45;;;1.80;;
36257;SDS011;22294;52.044;4.582;2022-08-21T13:03:54;6.38;;;1.65;;
36257;SDS011;22294;52.044;4.582;2022-08-21T13:06:23;4.93;;;1.77;;
36257;SDS011;22294;52.044;4.582;2022-08-21T13:08:52;4.90;;;1.45;;
36257;SDS011;22294;52.044;4.582;2022-08-21T13:11:23;8.18;;;1.58;;
36257;SDS011;22294;52.044;4.582;2022-08-21T13:13:50;5.68;;;1.45;;
36257;SDS011;22294;52.044;4.582;2022-08-21T13:16:35;5.65;;;1.40;;
36257;SDS011;22294;52.044;4.582;2022-08-21T13:19:02;6.25;;;1.25;;
36257;SDS011;22294;52.044;4.582;2022-08-21T13:21:38;4.93;;;1.23;;
36257;SDS011;22294;52.044;4.582;2022-08-21T13:24:08;4.97;;;1.40;;
36257;SDS011;22294;52.044;4.582;2022-08-21T13:26:47;6.63;;;1.50;;
36257;SDS011;22294;52.044;4.582;2022-08-21T13:29:15;5.13;;;1.63;;
36257;SDS011;22294;52.044;4.582;2022-08-21T13:31:47;5.37;;;1.50;;
36257;SDS011;22294;52.044;4.582;2022-08-21T13:34:15;2.95;;;1.13;;
36257;SDS011;22294;52.044;4.582;2022-08-21T13:36:42;7.10;;;1.40;;
36257;SDS011;22294;52.044;4.582;2022-08-21T13:39:10;2.63;;;1.13;;
36257;SDS011;22294;52.044;4.582;2022-08-21T13:41:38;8.27;;;1.37;;
36257;SDS011;22294;52.044;4.582;2022-08-21T13:44:14;5.78;;;1.30;;
36257;SDS011;22294;52.044;4.582;2022-08-21T13:46:51;3.17;;;1.17;;
36257;SDS011;22294;52.044;4.582;2022-08-21T13:49:19;4.82;;;1.33;;
36257;SDS011;22294;52.044;4.582;2022-08-21T13:54:16;5.40;;;1.40;;
36257;SDS011;22294;52.044;4.582;2022-08-21T13:56:48;4.78;;;1.30;;
36257;SDS011;22294;52.044;4.582;2022-08-21T13:59:23;6.45;;;1.20;;
36257;SDS011;22294;52.044;4.582;2022-08-21T14:01:54;3.70;;;0.95;;
36257;SDS011;22294;52.044;4.582;2022-08-21T14:04:26;6.75;;;1.58;;
36257;SDS011;22294;52.044;4.582;2022-08-21T14:06:57;7.18;;;1.58;;
36257;SDS011;22294;52.044;4.582;2022-08-21T14:09:29;5.38;;;1.90;;
36257;SDS011;22294;52.044;4.582;2022-08-21T14:11:59;7.95;;;1.70;;
36257;SDS011;22294;52.044;4.582;2022-08-21T14:14:28;4.13;;;1.90;;
36257;SDS011;22294;52.044;4.582;2022-08-21T14:16:58;7.38;;;1.77;;
36257;SDS011;22294;52.044;4.582;2022-08-21T14:19:36;5.22;;;1.35;;
36257;SDS011;22294;52.044;4.582;2022-08-21T14:28:02;6.97;;;1.42;;
36257;SDS011;22294;52.044;4.582;2022-08-21T14:35:24;6.50;;;1.77;;
36257;SDS011;22294;52.044;4.582;2022-08-21T14:37:50;8.93;;;2.22;;
36257;SDS011;22294;52.044;4.582;2022-08-21T14:40:16;8.63;;;2.33;;
36257;SDS011;22294;52.044;4.582;2022-08-21T14:42:42;20.58;;;2.55;;
36257;SDS011;22294;52.044;4.582;2022-08-21T14:47:53;6.82;;;2.17;;
36257;SDS011;22294;52.044;4.582;2022-08-21T14:50:19;12.80;;;2.35;;
36257;SDS011;22294;52.044;4.582;2022-08-21T14:52:45;12.85;;;2.35;;
36257;SDS011;22294;52.044;4.582;2022-08-21T14:55:11;7.88;;;2.10;;
36257;SDS011;22294;52.044;4.582;2022-08-21T14:57:40;10.32;;;1.88;;
36257;SDS011;22294;52.044;4.582;2022-08-21T15:00:09;6.00;;;2.25;;
36257;SDS011;22294;52.044;4.582;2022-08-21T15:02:36;8.15;;;1.90;;
36257;SDS011;22294;52.044;4.582;2022-08-21T15:05:02;9.38;;;2.40;;
36257;SDS011;22294;52.044;4.582;2022-08-21T15:07:27;7.95;;;1.98;;
36257;SDS011;22294;52.044;4.582;2022-08-21T15:09:53;9.68;;;2.13;;
36257;SDS011;22294;52.044;4.582;2022-08-21T15:12:18;8.05;;;2.13;;
36257;SDS011;22294;52.044;4.582;2022-08-21T15:14:44;7.90;;;1.95;;
36257;SDS011;22294;52.044;4.582;2022-08-21T15:17:09;7.85;;;1.70;;
36257;SDS011;22294;52.044;4.582;2022-08-21T15:19:35;6.88;;;2.58;;
36257;SDS011;22294;52.044;4.582;2022-08-21T15:22:01;7.80;;;1.70;;
36257;SDS011;22294;52.044;4.582;2022-08-21T15:24:27;8.23;;;1.88;;
36257;SDS011;22294;52.044;4.582;2022-08-21T15:26:52;7.13;;;2.20;;
36257;SDS011;22294;52.044;4.582;2022-08-21T15:29:19;7.07;;;1.83;;
36257;SDS011;22294;52.044;4.582;2022-08-21T15:32:20;9.45;;;2.35;;
36257;SDS011;22294;52.044;4.582;2022-08-21T15:34:41;10.20;;;3.53;;
36257;SDS011;22294;52.044;4.582;2022-08-21T15:37:07;8.18;;;2.72;;
36257;SDS011;22294;52.044;4.582;2022-08-21T15:39:33;9.80;;;2.40;;
36257;SDS011;22294;52.044;4.582;2022-08-21T15:41:59;9.70;;;2.85;;
36257;SDS011;22294;52.044;4.582;2022-08-21T15:44:26;4.68;;;2.13;;
36257;SDS011;22294;52.044;4.582;2022-08-21T15:46:53;10.57;;;2.50;;
36257;SDS011;22294;52.044;4.582;2022-08-21T15:49:19;7.90;;;2.10;;
36257;SDS011;22294;52.044;4.582;2022-08-21T15:51:44;11.30;;;2.70;;
36257;SDS011;22294;52.044;4.582;2022-08-21T15:54:09;6.90;;;1.93;;
36257;SDS011;22294;52.044;4.582;2022-08-21T15:56:36;9.25;;;1.80;;
36257;SDS011;22294;52.044;4.582;2022-08-21T15:59:12;9.35;;;2.92;;
36257;SDS011;22294;52.044;4.582;2022-08-21T16:01:40;5.53;;;2.00;;
36257;SDS011;22294;52.044;4.582;2022-08-21T16:04:06;5.57;;;1.80;;
36257;SDS011;22294;52.044;4.582;2022-08-21T16:06:32;7.25;;;2.40;;